AWW52JW EGFF-EGPH
Flight info
| Callsign | AWW52JW |
|---|---|
| Flight time | 1h 0m |
| Altitude | 24000 |
| Route | BCN P69 DIZIM N864 KISWO DCT AVTIC DCT ANJAK N38 NOKIN UP16 RIBEL DCT INPIP |
| Aircraft | A319/M-SDE3FGHIRWY/LB1 |
Departure
| Time | 2026-04-22 13:09 |
|---|---|
| Airport | Cardiff International Airport (EGFF) |
Arrival
| Time | 2026-04-22 14:09 |
|---|---|
| Airport | Edinburgh Airport (EGPH) |
| Time | Latitude | Longitude | Altitude | Speed | Heading |
|---|---|---|---|---|---|
| 2026-04-22 12:51 | 51.39911 | -3.34158 | 222 ft | 0 kts | 116° |
| 2026-04-22 13:00 | 51.39914 | -3.34168 | 221 ft | 0 kts | 118° |
| 2026-04-22 13:02 | 51.39919 | -3.34183 | 223 ft | 3 kts | 123° |
| 2026-04-22 13:02 | 51.39931 | -3.34206 | 223 ft | 3 kts | 148° |
| 2026-04-22 13:03 | 51.39947 | -3.34216 | 223 ft | 3 kts | 193° |
| 2026-04-22 13:03 | 51.39955 | -3.34213 | 221 ft | 0 kts | 207° |
| 2026-04-22 13:03 | 51.39955 | -3.34212 | 221 ft | 0 kts | 207° |
| 2026-04-22 13:05 | 51.39942 | -3.34224 | 225 ft | 6 kts | 207° |
| 2026-04-22 13:06 | 51.39875 | -3.34278 | 224 ft | 14 kts | 211° |
| 2026-04-22 13:06 | 51.39873 | -3.34416 | 225 ft | 14 kts | 295° |
| 2026-04-22 13:06 | 51.39921 | -3.34573 | 224 ft | 18 kts | 297° |
| 2026-04-22 13:06 | 51.39982 | -3.34764 | 222 ft | 20 kts | 297° |
| 2026-04-22 13:07 | 51.40048 | -3.34972 | 218 ft | 22 kts | 297° |
| 2026-04-22 13:07 | 51.40117 | -3.35188 | 222 ft | 21 kts | 297° |
| 2026-04-22 13:07 | 51.40153 | -3.35401 | 217 ft | 20 kts | 256° |
| 2026-04-22 13:07 | 51.40049 | -3.35529 | 220 ft | 17 kts | 180° |
| 2026-04-22 13:08 | 51.40019 | -3.35462 | 221 ft | 6 kts | 117° |
| 2026-04-22 13:08 | 51.39949 | -3.35248 | 217 ft | 55 kts | 117° |
| 2026-04-22 13:08 | 51.39674 | -3.34363 | 224 ft | 120 kts | 116° |
| 2026-04-22 13:08 | 51.39239 | -3.33025 | 651 ft | 133 kts | 114° |
| 2026-04-22 13:09 | 51.38822 | -3.31703 | 1406 ft | 133 kts | 113° |
| 2026-04-22 13:09 | 51.38422 | -3.30378 | 2102 ft | 136 kts | 112° |
| 2026-04-22 13:09 | 51.37983 | -3.28902 | 2492 ft | 157 kts | 112° |
| 2026-04-22 13:09 | 51.37473 | -3.27202 | 2838 ft | 183 kts | 113° |
| 2026-04-22 13:10 | 51.36885 | -3.25247 | 3335 ft | 207 kts | 114° |
| 2026-04-22 13:10 | 51.36223 | -3.23056 | 3932 ft | 228 kts | 114° |
| 2026-04-22 13:10 | 51.35519 | -3.20741 | 4903 ft | 234 kts | 114° |
| 2026-04-22 13:10 | 51.35139 | -3.18204 | 5895 ft | 240 kts | 92° |
| 2026-04-22 13:11 | 51.35534 | -3.15551 | 6823 ft | 256 kts | 68° |
| 2026-04-22 13:11 | 51.36512 | -3.13103 | 7711 ft | 266 kts | 58° |
| 2026-04-22 13:11 | 51.38044 | -3.11292 | 8561 ft | 289 kts | 24° |
| 2026-04-22 13:11 | 51.40088 | -3.10961 | 9443 ft | 305 kts | 358° |
| 2026-04-22 13:12 | 51.42199 | -3.11576 | 10342 ft | 312 kts | 348° |
| 2026-04-22 13:12 | 51.44358 | -3.12623 | 10740 ft | 337 kts | 343° |
| 2026-04-22 13:12 | 51.46619 | -3.13904 | 11332 ft | 349 kts | 341° |
| 2026-04-22 13:12 | 51.48929 | -3.15219 | 12106 ft | 355 kts | 342° |
| 2026-04-22 13:13 | 51.51287 | -3.16481 | 12933 ft | 360 kts | 343° |
| 2026-04-22 13:13 | 51.53687 | -3.17677 | 13788 ft | 363 kts | 345° |
| 2026-04-22 13:13 | 51.56122 | -3.18820 | 14606 ft | 364 kts | 345° |
| 2026-04-22 13:13 | 51.58574 | -3.19933 | 15323 ft | 368 kts | 345° |
| 2026-04-22 13:14 | 51.61053 | -3.21046 | 16167 ft | 372 kts | 345° |
| 2026-04-22 13:14 | 51.63548 | -3.22170 | 16959 ft | 373 kts | 345° |
| 2026-04-22 13:14 | 51.66046 | -3.23306 | 17766 ft | 374 kts | 345° |
| 2026-04-22 13:14 | 51.68527 | -3.24443 | 18481 ft | 377 kts | 344° |
| 2026-04-22 13:15 | 51.71111 | -3.25486 | 19125 ft | 379 kts | 351° |
| 2026-04-22 13:15 | 51.73744 | -3.25815 | 19772 ft | 380 kts | 1° |
| 2026-04-22 13:15 | 51.76383 | -3.25378 | 20383 ft | 383 kts | 9° |
| 2026-04-22 13:15 | 51.79027 | -3.24705 | 20992 ft | 386 kts | 8° |
| 2026-04-22 13:16 | 51.81688 | -3.24041 | 21607 ft | 389 kts | 8° |
| 2026-04-22 13:16 | 51.84375 | -3.23375 | 22180 ft | 392 kts | 8° |
| 2026-04-22 13:16 | 51.87086 | -3.22705 | 22768 ft | 395 kts | 8° |
| 2026-04-22 13:16 | 51.89774 | -3.22040 | 23333 ft | 399 kts | 8° |
| 2026-04-22 13:17 | 51.92527 | -3.21362 | 23885 ft | 402 kts | 8° |
| 2026-04-22 13:17 | 51.95304 | -3.20683 | 24233 ft | 404 kts | 7° |
| 2026-04-22 13:17 | 51.98083 | -3.20003 | 24312 ft | 401 kts | 7° |
| 2026-04-22 13:17 | 52.00787 | -3.19337 | 24315 ft | 386 kts | 7° |
| 2026-04-22 13:18 | 52.03423 | -3.18686 | 24289 ft | 382 kts | 6° |
| 2026-04-22 13:18 | 52.06058 | -3.18375 | 24295 ft | 379 kts | 1° |
| 2026-04-22 13:18 | 52.08689 | -3.18179 | 24294 ft | 378 kts | 1° |
| 2026-04-22 13:18 | 52.11321 | -3.17984 | 24295 ft | 379 kts | 1° |
| 2026-04-22 13:19 | 52.13953 | -3.17786 | 24294 ft | 378 kts | 1° |
| 2026-04-22 13:19 | 52.16580 | -3.17586 | 24299 ft | 378 kts | 1° |
| 2026-04-22 13:19 | 52.19211 | -3.17381 | 24293 ft | 378 kts | 1° |
| 2026-04-22 13:19 | 52.21839 | -3.17171 | 24292 ft | 378 kts | 1° |
| 2026-04-22 13:20 | 52.24467 | -3.16966 | 24308 ft | 379 kts | 1° |
| 2026-04-22 13:20 | 52.27101 | -3.16764 | 24309 ft | 379 kts | 0° |
| 2026-04-22 13:20 | 52.29731 | -3.16562 | 24309 ft | 378 kts | 1° |
| 2026-04-22 13:20 | 52.32360 | -3.16357 | 24310 ft | 378 kts | 2° |
| 2026-04-22 13:21 | 52.34989 | -3.16151 | 24317 ft | 378 kts | 0° |
| 2026-04-22 13:21 | 52.37616 | -3.15949 | 24311 ft | 378 kts | 1° |
| 2026-04-22 13:21 | 52.40241 | -3.15746 | 24316 ft | 378 kts | 1° |
| 2026-04-22 13:21 | 52.42867 | -3.15542 | 24316 ft | 378 kts | 0° |
| 2026-04-22 13:22 | 52.45491 | -3.15339 | 24317 ft | 378 kts | 1° |
| 2026-04-22 13:22 | 52.48118 | -3.15134 | 24318 ft | 378 kts | 1° |
| 2026-04-22 13:22 | 52.50742 | -3.14928 | 24328 ft | 377 kts | 1° |
| 2026-04-22 13:22 | 52.53362 | -3.14724 | 24337 ft | 377 kts | 1° |
| 2026-04-22 13:23 | 52.55983 | -3.14523 | 24334 ft | 377 kts | 1° |
| 2026-04-22 13:23 | 52.58603 | -3.14322 | 24336 ft | 376 kts | 1° |
| 2026-04-22 13:23 | 52.61217 | -3.14117 | 24336 ft | 376 kts | 0° |
| 2026-04-22 13:23 | 52.63830 | -3.13911 | 24334 ft | 376 kts | 0° |
| 2026-04-22 13:24 | 52.66448 | -3.13703 | 24335 ft | 376 kts | 1° |
| 2026-04-22 13:24 | 52.69059 | -3.13493 | 24332 ft | 376 kts | 1° |
| 2026-04-22 13:24 | 52.71620 | -3.12886 | 24329 ft | 378 kts | 13° |
| 2026-04-22 13:24 | 52.74110 | -3.11481 | 24335 ft | 380 kts | 22° |
| 2026-04-22 13:25 | 52.76502 | -3.09608 | 24339 ft | 380 kts | 23° |
| 2026-04-22 13:25 | 52.78891 | -3.07734 | 24337 ft | 380 kts | 24° |
| 2026-04-22 13:25 | 52.81281 | -3.05867 | 24341 ft | 380 kts | 23° |
| 2026-04-22 13:25 | 52.83670 | -3.04006 | 24340 ft | 380 kts | 23° |
| 2026-04-22 13:26 | 52.86059 | -3.02137 | 24347 ft | 380 kts | 24° |
| 2026-04-22 13:26 | 52.88443 | -3.00266 | 24353 ft | 379 kts | 21° |
| 2026-04-22 13:26 | 52.90859 | -2.98562 | 24360 ft | 377 kts | 18° |
| 2026-04-22 13:26 | 52.93317 | -2.97070 | 24365 ft | 376 kts | 18° |
| 2026-04-22 13:27 | 52.95772 | -2.95577 | 24364 ft | 376 kts | 17° |
| 2026-04-22 13:27 | 52.98222 | -2.94080 | 24373 ft | 375 kts | 16° |
| 2026-04-22 13:27 | 53.00675 | -2.92577 | 24371 ft | 375 kts | 16° |
| 2026-04-22 13:27 | 53.03090 | -2.91097 | 24370 ft | 375 kts | 18° |
| 2026-04-22 13:28 | 53.05571 | -2.89578 | 24362 ft | 375 kts | 16° |
| 2026-04-22 13:28 | 53.07987 | -2.88096 | 24364 ft | 375 kts | 18° |
| 2026-04-22 13:28 | 53.10434 | -2.86589 | 24362 ft | 375 kts | 16° |
| 2026-04-22 13:28 | 53.12880 | -2.85077 | 24360 ft | 375 kts | 17° |
| 2026-04-22 13:29 | 53.15323 | -2.83564 | 24360 ft | 375 kts | 17° |
| 2026-04-22 13:29 | 53.17769 | -2.82048 | 24357 ft | 375 kts | 18° |
| 2026-04-22 13:29 | 53.20215 | -2.80533 | 24361 ft | 375 kts | 18° |
| 2026-04-22 13:29 | 53.22657 | -2.79020 | 24367 ft | 375 kts | 16° |
| 2026-04-22 13:30 | 53.25100 | -2.77501 | 24371 ft | 375 kts | 17° |
| 2026-04-22 13:30 | 53.27543 | -2.75979 | 24372 ft | 375 kts | 17° |
| 2026-04-22 13:30 | 53.29985 | -2.74457 | 24371 ft | 375 kts | 17° |
| 2026-04-22 13:30 | 53.32427 | -2.72936 | 24373 ft | 374 kts | 17° |
| 2026-04-22 13:31 | 53.34867 | -2.71414 | 24369 ft | 374 kts | 18° |
| 2026-04-22 13:31 | 53.37309 | -2.69893 | 24371 ft | 374 kts | 17° |
| 2026-04-22 13:31 | 53.39747 | -2.68366 | 24371 ft | 374 kts | 17° |
| 2026-04-22 13:31 | 53.42187 | -2.66832 | 24377 ft | 374 kts | 18° |
| 2026-04-22 13:32 | 53.44628 | -2.65294 | 24376 ft | 374 kts | 18° |
| 2026-04-22 13:32 | 53.47064 | -2.63756 | 24375 ft | 374 kts | 18° |
| 2026-04-22 13:32 | 53.49500 | -2.62221 | 24374 ft | 374 kts | 18° |
| 2026-04-22 13:32 | 53.51938 | -2.60686 | 24373 ft | 374 kts | 18° |
| 2026-04-22 13:33 | 53.54378 | -2.59148 | 24370 ft | 374 kts | 17° |
| 2026-04-22 13:33 | 53.56816 | -2.57606 | 24380 ft | 374 kts | 17° |
| 2026-04-22 13:33 | 53.59248 | -2.56064 | 24386 ft | 373 kts | 18° |
| 2026-04-22 13:33 | 53.61680 | -2.54524 | 24389 ft | 373 kts | 17° |
| 2026-04-22 13:34 | 53.64105 | -2.52992 | 24399 ft | 372 kts | 17° |
| 2026-04-22 13:34 | 53.66527 | -2.51459 | 24398 ft | 372 kts | 18° |
| 2026-04-22 13:34 | 53.68915 | -2.49941 | 24397 ft | 372 kts | 18° |
| 2026-04-22 13:34 | 53.71332 | -2.48400 | 24408 ft | 371 kts | 16° |
| 2026-04-22 13:35 | 53.73749 | -2.46857 | 24415 ft | 371 kts | 16° |
| 2026-04-22 13:35 | 53.76164 | -2.45318 | 24413 ft | 371 kts | 17° |
| 2026-04-22 13:35 | 53.78579 | -2.43777 | 24406 ft | 371 kts | 16° |
| 2026-04-22 13:35 | 53.80992 | -2.42232 | 24403 ft | 371 kts | 16° |
| 2026-04-22 13:36 | 53.83408 | -2.40686 | 24400 ft | 371 kts | 17° |
| 2026-04-22 13:36 | 53.85824 | -2.39140 | 24398 ft | 371 kts | 17° |
| 2026-04-22 13:36 | 53.88237 | -2.37592 | 24397 ft | 371 kts | 16° |
| 2026-04-22 13:36 | 53.90654 | -2.36040 | 24396 ft | 371 kts | 17° |
| 2026-04-22 13:37 | 53.93065 | -2.34491 | 24403 ft | 371 kts | 16° |
| 2026-04-22 13:37 | 53.95478 | -2.32940 | 24402 ft | 371 kts | 15° |
| 2026-04-22 13:37 | 53.97900 | -2.31434 | 24412 ft | 369 kts | 11° |
| 2026-04-22 13:37 | 54.00398 | -2.30620 | 24414 ft | 363 kts | 0° |
| 2026-04-22 13:38 | 54.02904 | -2.30684 | 24418 ft | 358 kts | 348° |
| 2026-04-22 13:38 | 54.07599 | -2.33103 | 24398 ft | 353 kts | 334° |
| 2026-04-22 13:38 | 54.09876 | -2.34683 | 24403 ft | 353 kts | 335° |
| 2026-04-22 13:39 | 54.12154 | -2.36255 | 24408 ft | 353 kts | 335° |
| 2026-04-22 13:39 | 54.14429 | -2.37827 | 24417 ft | 353 kts | 334° |
| 2026-04-22 13:39 | 54.16705 | -2.39402 | 24414 ft | 353 kts | 335° |
| 2026-04-22 13:39 | 54.18982 | -2.40982 | 24414 ft | 353 kts | 335° |
| 2026-04-22 13:40 | 54.21258 | -2.42566 | 24416 ft | 353 kts | 334° |
| 2026-04-22 13:40 | 54.23532 | -2.44144 | 24438 ft | 353 kts | 334° |
| 2026-04-22 13:40 | 54.25805 | -2.45727 | 24432 ft | 352 kts | 335° |
| 2026-04-22 13:40 | 54.28077 | -2.47317 | 24427 ft | 353 kts | 333° |
| 2026-04-22 13:41 | 54.29582 | -2.48373 | 24426 ft | 353 kts | 335° |
| 2026-04-22 13:41 | 54.31853 | -2.49966 | 24429 ft | 353 kts | 333° |
| 2026-04-22 13:41 | 54.34858 | -2.52068 | 24440 ft | 352 kts | 335° |
| 2026-04-22 13:41 | 54.37127 | -2.53654 | 24432 ft | 353 kts | 335° |
| 2026-04-22 13:42 | 54.39400 | -2.55248 | 24432 ft | 353 kts | 334° |
| 2026-04-22 13:42 | 54.41671 | -2.56845 | 24433 ft | 353 kts | 334° |
| 2026-04-22 13:42 | 54.43205 | -2.57922 | 24442 ft | 352 kts | 335° |
| 2026-04-22 13:42 | 54.45473 | -2.59514 | 24439 ft | 352 kts | 334° |
| 2026-04-22 13:43 | 54.47747 | -2.61114 | 24442 ft | 353 kts | 334° |
| 2026-04-22 13:43 | 54.50019 | -2.62717 | 24440 ft | 353 kts | 334° |
| 2026-04-22 13:43 | 54.52295 | -2.64328 | 24450 ft | 353 kts | 334° |
| 2026-04-22 13:43 | 54.54568 | -2.65941 | 24448 ft | 354 kts | 334° |
| 2026-04-22 13:44 | 54.56844 | -2.67559 | 24445 ft | 354 kts | 334° |
| 2026-04-22 13:44 | 54.59089 | -2.69158 | 24444 ft | 354 kts | 334° |
| 2026-04-22 13:44 | 54.61369 | -2.70783 | 24439 ft | 354 kts | 334° |
| 2026-04-22 13:44 | 54.63650 | -2.72408 | 24443 ft | 355 kts | 334° |
| 2026-04-22 13:45 | 54.65933 | -2.74033 | 24441 ft | 355 kts | 334° |
| 2026-04-22 13:45 | 54.68219 | -2.75663 | 24441 ft | 356 kts | 333° |
| 2026-04-22 13:45 | 54.70506 | -2.77295 | 24443 ft | 356 kts | 334° |
| 2026-04-22 13:45 | 54.72796 | -2.78932 | 24472 ft | 356 kts | 334° |
| 2026-04-22 13:46 | 54.75084 | -2.80572 | 24468 ft | 356 kts | 334° |
| 2026-04-22 13:46 | 54.77373 | -2.82212 | 24458 ft | 356 kts | 334° |
| 2026-04-22 13:46 | 54.79660 | -2.83853 | 24457 ft | 356 kts | 334° |
| 2026-04-22 13:46 | 54.81948 | -2.85498 | 24455 ft | 356 kts | 334° |
| 2026-04-22 13:47 | 54.84232 | -2.87143 | 24461 ft | 356 kts | 334° |
| 2026-04-22 13:47 | 54.86520 | -2.88792 | 24459 ft | 356 kts | 334° |
| 2026-04-22 13:47 | 54.88807 | -2.90437 | 24458 ft | 356 kts | 334° |
| 2026-04-22 13:47 | 54.91097 | -2.92086 | 24455 ft | 356 kts | 334° |
| 2026-04-22 13:48 | 54.93384 | -2.93739 | 24468 ft | 356 kts | 334° |
| 2026-04-22 13:48 | 54.95664 | -2.95386 | 24227 ft | 354 kts | 334° |
| 2026-04-22 13:48 | 54.97934 | -2.97029 | 23737 ft | 352 kts | 334° |
| 2026-04-22 13:48 | 55.00188 | -2.98661 | 23277 ft | 349 kts | 334° |
| 2026-04-22 13:49 | 55.02418 | -3.00280 | 22850 ft | 345 kts | 334° |
| 2026-04-22 13:49 | 55.04623 | -3.01884 | 22428 ft | 342 kts | 334° |
| 2026-04-22 13:49 | 55.06811 | -3.03478 | 22013 ft | 339 kts | 334° |
| 2026-04-22 13:49 | 55.08976 | -3.05058 | 21601 ft | 337 kts | 334° |
| 2026-04-22 13:50 | 55.11131 | -3.06635 | 21193 ft | 335 kts | 333° |
| 2026-04-22 13:50 | 55.13273 | -3.08208 | 20786 ft | 334 kts | 333° |
| 2026-04-22 13:50 | 55.15411 | -3.09777 | 20377 ft | 333 kts | 335° |
| 2026-04-22 13:50 | 55.17587 | -3.11374 | 19789 ft | 343 kts | 334° |
| 2026-04-22 13:51 | 55.19802 | -3.13000 | 19215 ft | 348 kts | 335° |
| 2026-04-22 13:51 | 55.22053 | -3.14654 | 18611 ft | 354 kts | 335° |
| 2026-04-22 13:51 | 55.24337 | -3.16337 | 17985 ft | 358 kts | 336° |
| 2026-04-22 13:51 | 55.26622 | -3.18022 | 17694 ft | 352 kts | 336° |
| 2026-04-22 13:52 | 55.28888 | -3.19517 | 17414 ft | 346 kts | 345° |
| 2026-04-22 13:52 | 55.31253 | -3.20122 | 17041 ft | 343 kts | 0° |
| 2026-04-22 13:52 | 55.33622 | -3.19849 | 16678 ft | 340 kts | 7° |
| 2026-04-22 13:52 | 55.35965 | -3.19465 | 16338 ft | 337 kts | 6° |
| 2026-04-22 13:53 | 55.38294 | -3.19096 | 15730 ft | 335 kts | 7° |
| 2026-04-22 13:53 | 55.40606 | -3.18733 | 15186 ft | 331 kts | 7° |
| 2026-04-22 13:53 | 55.42885 | -3.18381 | 14649 ft | 328 kts | 7° |
| 2026-04-22 13:53 | 55.45153 | -3.18034 | 14062 ft | 326 kts | 7° |
| 2026-04-22 13:54 | 55.47374 | -3.17692 | 13489 ft | 322 kts | 7° |
| 2026-04-22 13:54 | 55.49620 | -3.17345 | 12888 ft | 318 kts | 7° |
| 2026-04-22 13:54 | 55.51815 | -3.17003 | 12299 ft | 315 kts | 7° |
| 2026-04-22 13:54 | 55.53990 | -3.16660 | 11753 ft | 312 kts | 7° |
| 2026-04-22 13:55 | 55.56133 | -3.16319 | 11185 ft | 308 kts | 7° |
| 2026-04-22 13:55 | 55.58265 | -3.15979 | 10608 ft | 306 kts | 7° |
| 2026-04-22 13:55 | 55.60373 | -3.15643 | 10000 ft | 302 kts | 7° |
| 2026-04-22 13:55 | 55.62429 | -3.15317 | 9386 ft | 299 kts | 8° |
| 2026-04-22 13:56 | 55.64495 | -3.14990 | 8761 ft | 297 kts | 7° |
| 2026-04-22 13:56 | 55.66504 | -3.15196 | 8514 ft | 283 kts | 346° |
| 2026-04-22 13:56 | 55.68243 | -3.16752 | 8114 ft | 276 kts | 320° |
| 2026-04-22 13:56 | 55.69419 | -3.19375 | 7550 ft | 273 kts | 293° |
| 2026-04-22 13:57 | 55.69841 | -3.22508 | 7352 ft | 262 kts | 269° |
| 2026-04-22 13:57 | 55.69593 | -3.25707 | 6924 ft | 261 kts | 249° |
| 2026-04-22 13:57 | 55.69036 | -3.28713 | 6713 ft | 256 kts | 248° |
| 2026-04-22 13:57 | 55.68481 | -3.31743 | 6627 ft | 259 kts | 248° |
| 2026-04-22 13:58 | 55.67930 | -3.34772 | 6546 ft | 259 kts | 248° |
| 2026-04-22 13:58 | 55.67375 | -3.37821 | 6454 ft | 261 kts | 248° |
| 2026-04-22 13:58 | 55.66819 | -3.40872 | 6374 ft | 259 kts | 249° |
| 2026-04-22 13:58 | 55.66268 | -3.43906 | 6293 ft | 260 kts | 248° |
| 2026-04-22 13:59 | 55.65714 | -3.46935 | 6213 ft | 257 kts | 249° |
| 2026-04-22 13:59 | 55.65162 | -3.49946 | 6131 ft | 256 kts | 247° |
| 2026-04-22 13:59 | 55.64836 | -3.52997 | 5995 ft | 250 kts | 266° |
| 2026-04-22 13:59 | 55.65111 | -3.55959 | 5893 ft | 241 kts | 288° |
| 2026-04-22 14:00 | 55.65912 | -3.58549 | 5772 ft | 241 kts | 309° |
| 2026-04-22 14:00 | 55.67095 | -3.60609 | 5656 ft | 237 kts | 318° |
| 2026-04-22 14:00 | 55.68318 | -3.62572 | 5520 ft | 239 kts | 318° |
| 2026-04-22 14:00 | 55.69549 | -3.64525 | 5394 ft | 236 kts | 320° |
| 2026-04-22 14:01 | 55.70809 | -3.66393 | 5265 ft | 236 kts | 321° |
| 2026-04-22 14:01 | 55.72083 | -3.68227 | 5125 ft | 236 kts | 322° |
| 2026-04-22 14:01 | 55.73367 | -3.70062 | 4996 ft | 236 kts | 321° |
| 2026-04-22 14:01 | 55.74634 | -3.71884 | 4870 ft | 235 kts | 321° |
| 2026-04-22 14:02 | 55.75894 | -3.73758 | 4745 ft | 238 kts | 318° |
| 2026-04-22 14:02 | 55.77098 | -3.75800 | 4624 ft | 239 kts | 315° |
| 2026-04-22 14:02 | 55.78330 | -3.77710 | 4522 ft | 231 kts | 334° |
| 2026-04-22 14:02 | 55.79860 | -3.78261 | 4456 ft | 225 kts | 11° |
| 2026-04-22 14:03 | 55.81224 | -3.77164 | 4371 ft | 213 kts | 50° |
| 2026-04-22 14:03 | 55.82119 | -3.75130 | 4284 ft | 208 kts | 61° |
| 2026-04-22 14:03 | 55.82872 | -3.72939 | 4168 ft | 206 kts | 67° |
| 2026-04-22 14:03 | 55.83583 | -3.70719 | 4060 ft | 208 kts | 64° |
| 2026-04-22 14:04 | 55.84323 | -3.68518 | 3966 ft | 207 kts | 64° |
| 2026-04-22 14:04 | 55.85066 | -3.66349 | 3762 ft | 205 kts | 63° |
| 2026-04-22 14:04 | 55.85806 | -3.64192 | 3505 ft | 200 kts | 64° |
| 2026-04-22 14:04 | 55.86515 | -3.62129 | 3242 ft | 191 kts | 63° |
| 2026-04-22 14:05 | 55.87185 | -3.60174 | 2979 ft | 183 kts | 62° |
| 2026-04-22 14:05 | 55.87833 | -3.58280 | 2752 ft | 177 kts | 62° |
| 2026-04-22 14:05 | 55.89034 | -3.54769 | 2275 ft | 157 kts | 62° |
| 2026-04-22 14:06 | 55.89582 | -3.53167 | 2061 ft | 146 kts | 62° |
| 2026-04-22 14:06 | 55.90091 | -3.51676 | 1856 ft | 136 kts | 62° |
| 2026-04-22 14:06 | 55.90566 | -3.50282 | 1675 ft | 128 kts | 62° |
| 2026-04-22 14:06 | 55.91016 | -3.48964 | 1509 ft | 120 kts | 62° |
| 2026-04-22 14:07 | 55.91444 | -3.47707 | 1345 ft | 119 kts | 63° |
| 2026-04-22 14:07 | 55.91866 | -3.46469 | 1180 ft | 116 kts | 62° |
| 2026-04-22 14:07 | 55.92287 | -3.45230 | 1012 ft | 118 kts | 62° |
| 2026-04-22 14:07 | 55.92711 | -3.43985 | 841 ft | 119 kts | 61° |
| 2026-04-22 14:08 | 55.93134 | -3.42742 | 680 ft | 119 kts | 59° |
| 2026-04-22 14:08 | 55.93557 | -3.41502 | 488 ft | 118 kts | 59° |
| 2026-04-22 14:08 | 55.93981 | -3.40276 | 390 ft | 115 kts | 59° |
| 2026-04-22 14:08 | 55.94394 | -3.39045 | 214 ft | 116 kts | 59° |
| 2026-04-22 14:09 | 55.94801 | -3.37842 | 115 ft | 104 kts | 60° |
| 2026-04-22 14:09 | 55.95096 | -3.36972 | 113 ft | 57 kts | 59° |
| 2026-04-22 14:09 | 55.95232 | -3.36571 | 113 ft | 25 kts | 59° |
| 2026-04-22 14:09 | 55.95262 | -3.36417 | 112 ft | 8 kts | 112° |
| 2026-04-22 14:10 | 55.95235 | -3.36378 | 113 ft | 2 kts | 153° |
| 2026-04-22 14:10 | 55.95233 | -3.36377 | 113 ft | 0 kts | 153° |
| 2026-04-22 14:11 | 55.95235 | -3.36379 | 113 ft | 2 kts | 153° |
| 2026-04-22 14:11 | 55.95212 | -3.36363 | 114 ft | 3 kts | 159° |
| 2026-04-22 14:11 | 55.95197 | -3.36353 | 113 ft | 2 kts | 159° |
| 2026-04-22 14:11 | 55.95177 | -3.36337 | 115 ft | 0 kts | 148° |